createdAt,value
2023-03-16T00:00:47.942Z,5.60
2023-03-16T00:03:22.006Z,5.61
2023-03-16T00:05:52.494Z,5.64
2023-03-16T00:08:25.133Z,5.65
2023-03-16T00:10:54.405Z,5.65
2023-03-16T00:13:24.833Z,5.67
2023-03-16T00:16:05.610Z,5.67
2023-03-16T00:18:39.289Z,5.72
2023-03-16T00:21:07.783Z,5.74
2023-03-16T00:23:38.406Z,5.73
2023-03-16T00:26:09.149Z,5.73
2023-03-16T00:28:39.984Z,5.74
2023-03-16T00:31:12.265Z,5.73
2023-03-16T00:33:48.696Z,5.73
2023-03-16T00:36:19.005Z,5.76
2023-03-16T00:38:49.357Z,5.78
2023-03-16T00:41:17.937Z,5.79
2023-03-16T00:43:49.078Z,5.80
2023-03-16T00:46:20.278Z,5.83
2023-03-16T00:48:48.932Z,5.85
2023-03-16T00:51:19.420Z,5.86
2023-03-16T00:53:50.832Z,5.85
2023-03-16T00:56:20.366Z,5.82
2023-03-16T00:58:49.787Z,5.82
2023-03-16T01:01:20.494Z,5.82
2023-03-16T01:03:51.148Z,5.82
2023-03-16T01:06:20.885Z,5.81
2023-03-16T01:08:49.750Z,5.81
2023-03-16T01:11:20.095Z,5.80
2023-03-16T01:13:50.916Z,5.82
2023-03-16T01:16:19.646Z,5.83
2023-03-16T01:18:52.691Z,5.84
2023-03-16T01:21:22.868Z,5.84
2023-03-16T01:23:54.123Z,5.86
2023-03-16T01:26:26.478Z,5.88
2023-03-16T01:28:55.662Z,5.90
2023-03-16T01:31:25.933Z,5.92
2023-03-16T01:33:55.761Z,5.88
2023-03-16T01:36:35.434Z,5.84
2023-03-16T01:39:06.957Z,5.84
2023-03-16T01:41:43.133Z,5.86
2023-03-16T01:44:16.269Z,5.87
2023-03-16T01:46:44.957Z,5.86
2023-03-16T01:49:15.690Z,5.85
2023-03-16T01:52:10.438Z,5.83
2023-03-16T01:55:08.136Z,5.83
2023-03-16T01:57:43.236Z,5.84
2023-03-16T02:00:21.240Z,5.87
2023-03-16T02:03:25.128Z,5.89
2023-03-16T02:06:03.879Z,5.90
2023-03-16T02:08:33.786Z,5.93
2023-03-16T02:11:05.115Z,5.96
2023-03-16T02:13:48.125Z,5.99
2023-03-16T02:16:19.797Z,6.01
2023-03-16T02:18:49.398Z,6.02
2023-03-16T02:21:40.131Z,6.04
2023-03-16T02:24:28.492Z,6.05
2023-03-16T02:26:59.702Z,6.08
2023-03-16T02:29:43.714Z,6.10
2023-03-16T02:32:13.907Z,6.10
2023-03-16T02:34:43.273Z,6.09
2023-03-16T02:37:15.370Z,6.06
2023-03-16T02:39:44.991Z,6.04
2023-03-16T02:42:17.203Z,6.02
2023-03-16T02:44:48.877Z,5.99
2023-03-16T02:47:32.499Z,5.98
2023-03-16T02:50:08.338Z,5.97
2023-03-16T02:52:38.583Z,5.96
2023-03-16T02:55:07.565Z,5.95
2023-03-16T02:57:36.632Z,5.93
2023-03-16T03:03:47.438Z,5.93
2023-03-16T03:06:15.165Z,5.93
2023-03-16T03:08:43.128Z,5.94
2023-03-16T03:11:11.346Z,5.94
2023-03-16T03:13:44.132Z,5.93
2023-03-16T03:16:14.951Z,5.92
2023-03-16T03:18:45.427Z,5.93
2023-03-16T03:21:18.129Z,5.96
2023-03-16T03:23:46.693Z,5.98
2023-03-16T03:26:16.031Z,5.98
2023-03-16T03:28:48.920Z,6.03
2023-03-16T03:31:18.442Z,6.05
2023-03-16T03:33:49.521Z,6.09
2023-03-16T03:36:19.593Z,6.11
2023-03-16T03:38:50.253Z,6.12
2023-03-16T03:41:22.520Z,6.11
2023-03-16T03:43:53.477Z,6.09
2023-03-16T03:46:29.519Z,6.09
2023-03-16T03:49:03.327Z,6.06
2023-03-16T03:51:35.982Z,6.03
2023-03-16T03:54:16.164Z,5.99
2023-03-16T03:56:49.658Z,5.98
2023-03-16T03:59:20.840Z,5.99
2023-03-16T04:02:16.500Z,5.98
2023-03-16T04:04:58.420Z,5.97
2023-03-16T04:14:09.465Z,5.93
2023-03-16T04:16:39.110Z,5.88
2023-03-16T04:19:07.507Z,5.87
2023-03-16T04:21:38.109Z,5.86
2023-03-16T04:24:09.308Z,5.83
2023-03-16T04:26:41.418Z,5.78
2023-03-16T04:29:13.647Z,5.74
2023-03-16T04:31:44.282Z,5.69
2023-03-16T04:34:11.590Z,5.62
2023-03-16T04:36:39.955Z,5.59
2023-03-16T04:39:08.955Z,5.58
2023-03-16T04:41:36.388Z,5.56
2023-03-16T04:44:13.211Z,5.55
2023-03-16T04:46:43.891Z,5.55
2023-03-16T04:49:16.713Z,5.56
2023-03-16T04:51:51.019Z,5.57
2023-03-16T04:54:21.710Z,5.61
2023-03-16T04:56:49.499Z,5.64
2023-03-16T04:59:35.339Z,5.66
2023-03-16T05:02:22.855Z,5.68
2023-03-16T05:04:51.268Z,5.70
2023-03-16T05:07:24.718Z,5.73
2023-03-16T05:09:55.477Z,5.72
2023-03-16T05:12:23.023Z,5.69
2023-03-16T05:14:56.036Z,5.67
2023-03-16T05:17:44.213Z,5.66
2023-03-16T05:20:16.038Z,5.69
2023-03-16T05:22:47.931Z,5.72
2023-03-16T05:25:20.347Z,5.72
2023-03-16T05:27:51.152Z,5.72
2023-03-16T05:30:38.341Z,5.73
2023-03-16T05:33:09.471Z,5.73
2023-03-16T05:35:37.801Z,5.74
2023-03-16T05:38:08.750Z,5.73
2023-03-16T05:40:37.750Z,5.72
2023-03-16T05:43:13.130Z,5.69
2023-03-16T05:45:46.498Z,5.64
2023-03-16T05:48:16.776Z,5.58
2023-03-16T05:50:51.880Z,5.54
2023-03-16T05:53:28.295Z,5.55
2023-03-16T05:55:59.192Z,5.56
2023-03-16T05:58:27.214Z,5.56
2023-03-16T06:00:55.906Z,5.56
2023-03-16T06:03:28.784Z,5.53
2023-03-16T06:05:57.453Z,5.49
2023-03-16T06:08:30.607Z,5.47
2023-03-16T06:11:05.573Z,5.42
2023-03-16T06:13:33.040Z,5.37
2023-03-16T06:16:01.411Z,5.30
2023-03-16T06:18:29.339Z,5.25
2023-03-16T06:21:00.136Z,5.23
2023-03-16T06:23:28.766Z,5.20
2023-03-16T06:25:56.123Z,5.17
2023-03-16T06:28:26.410Z,5.15
2023-03-16T06:30:55.367Z,5.12
2023-03-16T06:33:24.440Z,5.07
2023-03-16T06:35:54.520Z,5.03
2023-03-16T06:38:29.757Z,5.02
2023-03-16T06:41:05.276Z,5.02
2023-03-16T06:43:35.898Z,5.00
2023-03-16T06:46:04.742Z,4.96
2023-03-16T06:48:49.784Z,4.89
2023-03-16T06:51:23.071Z,4.82
2023-03-16T06:53:50.477Z,4.75
2023-03-16T06:56:18.960Z,4.71
2023-03-16T06:58:48.805Z,4.69
2023-03-16T07:01:19.661Z,4.69
2023-03-16T07:03:49.061Z,4.71
2023-03-16T07:06:20.654Z,4.71
2023-03-16T07:08:50.218Z,4.71
2023-03-16T07:11:22.857Z,4.72
2023-03-16T07:14:01.551Z,4.72
2023-03-16T07:16:31.771Z,4.70
2023-03-16T07:19:01.528Z,4.66
2023-03-16T07:21:29.090Z,4.64
2023-03-16T07:23:57.497Z,4.63
2023-03-16T07:26:26.764Z,4.64
2023-03-16T07:28:58.312Z,4.66
2023-03-16T07:31:25.800Z,4.67
2023-03-16T07:33:53.628Z,4.67
2023-03-16T07:36:28.272Z,4.67
2023-03-16T07:38:57.887Z,4.66
2023-03-16T07:41:25.602Z,4.63
2023-03-16T07:43:53.533Z,4.60
2023-03-16T07:46:27.968Z,4.61
2023-03-16T07:48:55.895Z,4.63
2023-03-16T07:51:24.821Z,4.66
2023-03-16T07:53:53.882Z,4.67
2023-03-16T07:56:42.284Z,4.67
2023-03-16T07:59:38.182Z,4.64
2023-03-16T08:02:06.052Z,4.63
2023-03-16T08:04:33.876Z,4.64
2023-03-16T08:07:03.010Z,4.67
2023-03-16T08:09:42.292Z,4.68
2023-03-16T08:12:11.410Z,4.69
2023-03-16T08:14:41.356Z,4.72
2023-03-16T08:17:18.491Z,4.75
2023-03-16T08:19:48.353Z,4.71
2023-03-16T08:22:17.460Z,4.70
2023-03-16T08:24:45.961Z,4.71
2023-03-16T08:27:20.564Z,4.73
2023-03-16T08:29:56.594Z,4.74
2023-03-16T08:32:30.644Z,4.76
2023-03-16T08:35:01.002Z,4.77
2023-03-16T08:37:29.674Z,4.80
2023-03-16T08:40:01.257Z,4.85
2023-03-16T08:42:33.291Z,4.87
2023-03-16T08:45:13.593Z,4.87
2023-03-16T08:47:45.246Z,4.87
2023-03-16T08:50:13.316Z,4.88
2023-03-16T08:52:43.051Z,4.87
2023-03-16T08:55:10.798Z,4.87
2023-03-16T08:57:41.239Z,4.88
2023-03-16T09:00:13.321Z,4.91
2023-03-16T09:02:41.380Z,4.95
2023-03-16T09:05:12.893Z,4.99
2023-03-16T09:07:41.981Z,5.00
2023-03-16T09:10:13.308Z,5.01
2023-03-16T09:12:43.939Z,4.99
2023-03-16T09:15:19.419Z,4.98
2023-03-16T09:17:50.659Z,4.97
2023-03-16T09:20:22.827Z,5.01
2023-03-16T09:22:57.687Z,5.04
2023-03-16T09:25:26.610Z,5.04
2023-03-16T09:27:53.780Z,5.01
2023-03-16T09:30:21.400Z,4.98
2023-03-16T09:32:50.579Z,4.99
2023-03-16T09:35:19.143Z,5.01
2023-03-16T09:38:04.655Z,5.03
2023-03-16T09:40:36.003Z,5.07
2023-03-16T09:43:16.854Z,5.07
2023-03-16T09:46:04.987Z,5.08
2023-03-16T09:48:36.351Z,5.11
2023-03-16T09:51:23.874Z,5.12
2023-03-16T09:53:56.486Z,5.15
2023-03-16T09:56:38.260Z,5.17
2023-03-16T09:59:19.999Z,5.20
2023-03-16T10:02:04.073Z,5.23
2023-03-16T10:05:16.072Z,5.24
2023-03-16T10:08:02.577Z,5.22
2023-03-16T10:11:22.352Z,5.17
2023-03-16T10:14:04.295Z,5.17
2023-03-16T10:16:37.195Z,5.19
2023-03-16T10:19:15.840Z,5.21
2023-03-16T10:21:44.559Z,5.21
2023-03-16T10:24:30.694Z,5.20
2023-03-16T10:27:00.505Z,5.18
2023-03-16T10:29:28.920Z,5.19
2023-03-16T10:32:22.387Z,5.20
2023-03-16T10:34:57.120Z,5.19
2023-03-16T10:37:27.949Z,5.16
2023-03-16T10:39:57.895Z,5.15
2023-03-16T10:42:27.382Z,5.16
2023-03-16T10:45:02.648Z,5.18
2023-03-16T10:47:35.783Z,5.19
2023-03-16T10:50:24.245Z,5.18
2023-03-16T10:52:57.635Z,5.21
2023-03-16T10:55:32.106Z,5.25
2023-03-16T10:58:11.850Z,5.25
2023-03-16T11:00:42.911Z,5.24
2023-03-16T11:03:31.896Z,5.21
2023-03-16T11:06:05.638Z,5.20
2023-03-16T11:08:36.930Z,5.19
2023-03-16T11:11:15.082Z,5.17
2023-03-16T11:13:47.624Z,5.13
2023-03-16T11:16:26.682Z,5.07
2023-03-16T11:18:58.075Z,5.04
2023-03-16T11:21:40.688Z,5.07
2023-03-16T11:24:20.721Z,5.11
2023-03-16T11:26:56.651Z,5.15
2023-03-16T11:29:44.809Z,5.17
2023-03-16T11:32:16.338Z,5.20
2023-03-16T11:34:43.352Z,5.24
2023-03-16T11:37:48.383Z,5.23
2023-03-16T11:40:36.691Z,5.21
2023-03-16T11:43:49.373Z,5.16
2023-03-16T11:46:29.949Z,5.13
2023-03-16T11:49:28.804Z,5.10
2023-03-16T11:52:37.979Z,5.05
2023-03-16T11:56:01.894Z,5.00
2023-03-16T11:58:50.804Z,5.01
2023-03-16T12:01:59.853Z,5.03
2023-03-16T12:05:23.992Z,5.02
2023-03-16T12:08:04.596Z,4.99
2023-03-16T12:14:19.993Z,5.08
2023-03-16T12:17:09.925Z,5.11
2023-03-16T12:23:16.851Z,5.10
2023-03-16T12:26:04.330Z,5.06
2023-03-16T12:28:50.246Z,5.03
2023-03-16T12:32:02.744Z,5.03
2023-03-16T12:35:20.947Z,5.05
2023-03-16T12:38:11.927Z,5.10
2023-03-16T12:41:21.434Z,5.13
2023-03-16T12:44:10.454Z,5.15
2023-03-16T12:47:17.207Z,5.18
2023-03-16T12:49:56.039Z,5.15
2023-03-16T12:52:26.360Z,5.13
2023-03-16T12:55:22.691Z,5.10
2023-03-16T12:58:00.604Z,5.13
2023-03-16T13:00:40.829Z,5.16
2023-03-16T13:03:20.066Z,5.19
2023-03-16T13:05:55.194Z,5.22
2023-03-16T13:08:23.896Z,5.23
2023-03-16T13:11:23.919Z,5.23
2023-03-16T13:14:19.193Z,5.21
2023-03-16T13:16:52.120Z,5.19
2023-03-16T13:19:28.612Z,5.20
2023-03-16T13:22:48.152Z,5.20
2023-03-16T13:25:36.416Z,5.18
2023-03-16T13:28:14.088Z,5.11
2023-03-16T13:30:50.192Z,5.05
2023-03-16T13:33:21.846Z,5.01
2023-03-16T13:35:51.852Z,4.99
2023-03-16T13:38:28.768Z,4.98
2023-03-16T13:40:57.771Z,4.98
2023-03-16T13:43:29.018Z,4.97
2023-03-16T13:45:56.988Z,4.95
2023-03-16T13:48:30.460Z,4.96
2023-03-16T13:50:58.598Z,4.93
2023-03-16T13:53:30.108Z,4.87
2023-03-16T13:56:09.024Z,4.87
2023-03-16T13:58:39.714Z,4.89
2023-03-16T14:01:29.708Z,4.92
2023-03-16T14:04:13.189Z,4.96
2023-03-16T14:06:55.597Z,4.96
2023-03-16T14:09:27.232Z,4.95
2023-03-16T14:11:57.673Z,4.93
2023-03-16T14:14:41.678Z,4.89
2023-03-16T14:17:13.726Z,4.83
2023-03-16T14:19:48.926Z,4.75
2023-03-16T14:22:23.526Z,4.70
2023-03-16T14:25:03.144Z,4.70
2023-03-16T14:27:46.457Z,4.67
2023-03-16T14:30:15.343Z,4.68
2023-03-16T14:33:01.691Z,4.69
2023-03-16T14:35:42.570Z,4.68
2023-03-16T14:38:36.072Z,4.67
2023-03-16T14:41:32.620Z,4.68
2023-03-16T14:44:03.741Z,4.67
2023-03-16T14:46:34.561Z,4.67
2023-03-16T14:49:37.270Z,4.67
2023-03-16T14:52:26.857Z,4.68
2023-03-16T14:54:56.347Z,4.64
2023-03-16T14:57:26.850Z,4.61
2023-03-16T14:59:55.189Z,4.58
2023-03-16T15:02:28.413Z,4.55
2023-03-16T15:04:59.418Z,4.51
2023-03-16T15:10:25.417Z,4.45
2023-03-16T15:13:13.407Z,4.42
2023-03-16T15:15:42.156Z,4.40
2023-03-16T15:18:16.770Z,4.41
2023-03-16T15:20:45.132Z,4.41
2023-03-16T15:23:15.990Z,4.39
2023-03-16T15:25:45.382Z,4.40
2023-03-16T15:28:20.332Z,4.39
2023-03-16T15:30:50.455Z,4.35
2023-03-16T15:33:20.653Z,4.31
2023-03-16T15:35:58.200Z,4.28
2023-03-16T15:38:27.381Z,4.24
2023-03-16T15:40:54.818Z,4.22
2023-03-16T15:43:31.658Z,4.21
2023-03-16T15:46:10.667Z,4.19
2023-03-16T15:48:38.106Z,4.17
2023-03-16T15:51:18.734Z,4.14
2023-03-16T15:53:50.123Z,4.08
2023-03-16T15:56:22.056Z,4.07
2023-03-16T15:58:58.238Z,4.08
2023-03-16T16:01:44.442Z,4.06
2023-03-16T16:04:23.196Z,4.04
2023-03-16T16:06:57.247Z,4.03
2023-03-16T16:09:25.245Z,4.02
2023-03-16T16:11:54.406Z,4.00
2023-03-16T16:14:30.239Z,3.96
2023-03-16T16:17:35.921Z,3.93
2023-03-16T16:20:22.174Z,3.91
2023-03-16T16:22:52.306Z,3.91
2023-03-16T16:25:20.893Z,3.90
2023-03-16T16:27:54.746Z,3.88
2023-03-16T16:30:45.858Z,3.85
2023-03-16T16:33:23.114Z,3.81
2023-03-16T16:35:51.099Z,3.77
2023-03-16T16:38:20.831Z,3.76
2023-03-16T16:40:58.177Z,3.79
2023-03-16T16:43:48.091Z,3.80
2023-03-16T16:46:23.515Z,3.79
2023-03-16T16:49:06.034Z,3.77
2023-03-16T16:51:34.935Z,3.78
2023-03-16T16:54:10.771Z,3.79
2023-03-16T16:56:39.680Z,3.81
2023-03-16T16:59:25.022Z,3.84
2023-03-16T17:01:58.808Z,3.84
2023-03-16T17:04:47.964Z,3.82
2023-03-16T17:07:32.922Z,3.78
2023-03-16T17:10:23.995Z,3.75
2023-03-16T17:13:14.308Z,3.75
2023-03-16T17:15:45.667Z,3.77
2023-03-16T17:18:32.341Z,3.76
2023-03-16T17:21:04.802Z,3.76
2023-03-16T17:23:40.066Z,3.77
2023-03-16T17:26:32.582Z,3.80
2023-03-16T17:29:02.318Z,3.82
2023-03-16T17:31:41.655Z,3.81
2023-03-16T17:34:23.008Z,3.78
2023-03-16T17:37:13.667Z,3.74
2023-03-16T17:39:42.260Z,3.72
2023-03-16T17:42:18.047Z,3.73
2023-03-16T17:44:50.770Z,3.73
2023-03-16T17:47:24.339Z,3.71
2023-03-16T17:49:52.606Z,3.67
2023-03-16T17:52:22.947Z,3.66
2023-03-16T17:54:52.040Z,3.67
2023-03-16T17:57:28.489Z,3.71
2023-03-16T17:59:57.510Z,3.76
2023-03-16T18:02:50.984Z,3.78
2023-03-16T18:05:28.448Z,3.78
2023-03-16T18:08:27.241Z,3.78
2023-03-16T18:10:57.210Z,3.74
2023-03-16T18:13:36.813Z,3.69
2023-03-16T18:16:06.631Z,3.65
2023-03-16T18:18:37.787Z,3.61
2023-03-16T18:21:22.348Z,3.59
2023-03-16T18:23:52.829Z,3.56
2023-03-16T18:26:24.100Z,3.55
2023-03-16T18:28:52.957Z,3.55
2023-03-16T18:31:25.789Z,3.54
2023-03-16T18:34:04.594Z,3.55
2023-03-16T18:36:35.828Z,3.56
2023-03-16T18:39:15.798Z,3.55
2023-03-16T18:41:50.523Z,3.52
2023-03-16T18:44:20.052Z,3.49
2023-03-16T18:46:51.422Z,3.46
2023-03-16T18:49:26.653Z,3.45
2023-03-16T18:51:54.109Z,3.47
2023-03-16T18:54:28.027Z,3.50
2023-03-16T18:57:03.714Z,3.51
2023-03-16T18:59:33.760Z,3.50
2023-03-16T19:02:02.258Z,3.47
2023-03-16T19:04:32.345Z,3.45
2023-03-16T19:07:05.404Z,3.48
2023-03-16T19:09:36.044Z,3.49
2023-03-16T19:12:06.806Z,3.48
2023-03-16T19:14:37.256Z,3.44
2023-03-16T19:17:11.872Z,3.43
2023-03-16T19:19:44.718Z,3.40
2023-03-16T19:22:20.390Z,3.40
2023-03-16T19:24:59.188Z,3.41
2023-03-16T19:27:34.961Z,3.40
2023-03-16T19:30:01.993Z,3.41
2023-03-16T19:32:31.149Z,3.44
2023-03-16T19:34:59.293Z,3.45
2023-03-16T19:37:29.834Z,3.46
2023-03-16T19:39:59.882Z,3.45
2023-03-16T19:42:38.187Z,3.41
2023-03-16T19:45:17.780Z,3.38
2023-03-16T19:47:49.478Z,3.35
2023-03-16T19:50:20.140Z,3.34
2023-03-16T19:52:50.396Z,3.32
2023-03-16T19:55:25.029Z,3.23
2023-03-16T19:58:01.124Z,3.13
2023-03-16T20:00:30.913Z,3.07
2023-03-16T20:02:58.427Z,3.03
2023-03-16T20:05:29.221Z,3.04
2023-03-16T20:07:58.413Z,3.05
2023-03-16T20:10:27.224Z,3.02
2023-03-16T20:12:58.613Z,2.99
2023-03-16T20:15:28.638Z,2.97
2023-03-16T20:17:56.675Z,2.93
2023-03-16T20:20:27.649Z,2.90
2023-03-16T20:22:57.936Z,2.90
2023-03-16T20:25:29.930Z,2.90
2023-03-16T20:28:01.005Z,2.89
2023-03-16T20:30:28.838Z,2.86
2023-03-16T20:32:57.956Z,2.85
2023-03-16T20:35:30.813Z,2.84
2023-03-16T20:38:00.520Z,2.83
2023-03-16T20:40:27.875Z,2.84
2023-03-16T20:42:56.048Z,2.86
2023-03-16T20:45:31.415Z,2.84
2023-03-16T20:47:59.060Z,2.82
2023-03-16T20:50:27.895Z,2.80
2023-03-16T20:52:55.808Z,2.76
2023-03-16T20:55:24.875Z,2.73
2023-03-16T20:57:55.773Z,2.73
2023-03-16T21:00:38.780Z,2.73
2023-03-16T21:03:24.908Z,2.72
2023-03-16T21:05:53.938Z,2.71
2023-03-16T21:08:21.350Z,2.71
2023-03-16T21:10:52.253Z,2.71
2023-03-16T21:13:28.097Z,2.71
2023-03-16T21:15:56.403Z,2.68
2023-03-16T21:18:28.105Z,2.67
2023-03-16T21:20:56.414Z,2.69
2023-03-16T21:23:25.268Z,2.69
2023-03-16T21:25:57.614Z,2.70
2023-03-16T21:28:25.493Z,2.69
2023-03-16T21:31:01.425Z,2.68
2023-03-16T21:33:42.358Z,2.69
2023-03-16T21:36:15.335Z,2.69
2023-03-16T21:38:45.667Z,2.68
2023-03-16T21:41:19.571Z,2.69
2023-03-16T21:43:54.345Z,2.68
2023-03-16T21:46:26.228Z,2.64
2023-03-16T21:48:54.303Z,2.62
2023-03-16T21:51:24.806Z,2.60
2023-03-16T21:53:57.865Z,2.61
2023-03-16T21:57:11.201Z,2.61
2023-03-16T21:59:54.039Z,2.59
2023-03-16T22:02:24.032Z,2.57
2023-03-16T22:04:53.018Z,2.55
2023-03-16T22:07:23.276Z,2.54
2023-03-16T22:09:53.786Z,2.53
2023-03-16T22:12:21.257Z,2.53
2023-03-16T22:14:54.448Z,2.53
2023-03-16T22:17:23.844Z,2.50
2023-03-16T22:19:52.737Z,2.47
2023-03-16T22:22:23.588Z,2.45
2023-03-16T22:24:51.696Z,2.43
2023-03-16T22:27:21.855Z,2.41
2023-03-16T22:29:49.669Z,2.37
2023-03-16T22:32:19.310Z,2.35
2023-03-16T22:37:26.801Z,2.36
2023-03-16T22:39:57.547Z,2.32
2023-03-16T22:42:37.711Z,2.30
2023-03-16T22:45:19.190Z,2.25
2023-03-16T22:47:50.487Z,2.20
2023-03-16T22:50:22.140Z,2.14
2023-03-16T22:52:54.182Z,2.10
2023-03-16T22:55:39.259Z,2.06
2023-03-16T22:58:20.816Z,2.04
2023-03-16T23:00:50.889Z,2.04
2023-03-16T23:03:21.457Z,2.04
2023-03-16T23:05:56.171Z,2.02
2023-03-16T23:08:26.917Z,2.02
2023-03-16T23:11:02.878Z,2.00
2023-03-16T23:13:31.670Z,1.99
2023-03-16T23:16:02.246Z,1.97
2023-03-16T23:18:30.915Z,1.97
2023-03-16T23:21:02.414Z,1.98
2023-03-16T23:23:34.685Z,1.99
2023-03-16T23:26:14.909Z,2.02
2023-03-16T23:28:45.419Z,2.03
2023-03-16T23:31:17.317Z,2.00
2023-03-16T23:33:48.994Z,1.98
2023-03-16T23:36:19.286Z,2.01
2023-03-16T23:38:50.640Z,2.01
2023-03-16T23:41:23.396Z,2.00
2023-03-16T23:43:58.525Z,1.93
2023-03-16T23:46:28.477Z,1.90
2023-03-16T23:48:58.277Z,1.90
2023-03-16T23:51:37.136Z,1.91
2023-03-16T23:54:35.518Z,1.93
2023-03-16T23:57:05.841Z,1.91
2023-03-16T23:59:35.750Z,1.89
